sensor_id;sensor_type;location;lat;lon;timestamp;temperature;humidity
1568;DHT22;777;47.156;8.326;2023-07-29T00:00:04;17.30;99.90
1568;DHT22;777;47.156;8.326;2023-07-29T00:02:38;17.40;99.90
1568;DHT22;777;47.156;8.326;2023-07-29T00:05:07;17.50;99.90
1568;DHT22;777;47.156;8.326;2023-07-29T00:07:34;17.60;99.90
1568;DHT22;777;47.156;8.326;2023-07-29T00:10:01;17.70;99.90
1568;DHT22;777;47.156;8.326;2023-07-29T00:12:28;17.60;99.90
1568;DHT22;777;47.156;8.326;2023-07-29T00:14:55;17.60;99.90
1568;DHT22;777;47.156;8.326;2023-07-29T00:17:22;17.60;99.90
1568;DHT22;777;47.156;8.326;2023-07-29T00:19:49;17.60;99.90
1568;DHT22;777;47.156;8.326;2023-07-29T00:22:18;17.30;99.90
1568;DHT22;777;47.156;8.326;2023-07-29T00:24:45;17.30;99.90
1568;DHT22;777;47.156;8.326;2023-07-29T00:27:17;17.30;99.90
1568;DHT22;777;47.156;8.326;2023-07-29T00:29:44;17.20;99.90
1568;DHT22;777;47.156;8.326;2023-07-29T00:32:13;17.30;99.90
1568;DHT22;777;47.156;8.326;2023-07-29T00:34:40;17.00;99.90
1568;DHT22;777;47.156;8.326;2023-07-29T00:37:07;16.80;99.90
1568;DHT22;777;47.156;8.326;2023-07-29T00:39:37;17.00;99.90
1568;DHT22;777;47.156;8.326;2023-07-29T00:42:05;17.10;99.90
1568;DHT22;777;47.156;8.326;2023-07-29T00:44:32;16.80;99.90
1568;DHT22;777;47.156;8.326;2023-07-29T00:47:01;17.00;99.90
1568;DHT22;777;47.156;8.326;2023-07-29T00:49:29;17.00;99.90
1568;DHT22;777;47.156;8.326;2023-07-29T00:51:56;16.80;99.90
1568;DHT22;777;47.156;8.326;2023-07-29T00:54:24;16.90;99.90
1568;DHT22;777;47.156;8.326;2023-07-29T00:56:53;16.90;99.90
1568;DHT22;777;47.156;8.326;2023-07-29T00:59:20;17.00;99.90
1568;DHT22;777;47.156;8.326;2023-07-29T01:01:47;17.00;99.90
1568;DHT22;777;47.156;8.326;2023-07-29T01:04:14;17.00;99.90
1568;DHT22;777;47.156;8.326;2023-07-29T01:06:46;16.90;99.90
1568;DHT22;777;47.156;8.326;2023-07-29T01:09:22;16.90;99.90
1568;DHT22;777;47.156;8.326;2023-07-29T01:12:01;16.60;99.90
1568;DHT22;777;47.156;8.326;2023-07-29T01:14:36;16.50;99.90
1568;DHT22;777;47.156;8.326;2023-07-29T01:17:09;16.60;99.90
1568;DHT22;777;47.156;8.326;2023-07-29T01:19:47;16.50;99.90
1568;DHT22;777;47.156;8.326;2023-07-29T01:22:16;16.60;99.90
1568;DHT22;777;47.156;8.326;2023-07-29T01:24:44;16.80;99.90
1568;DHT22;777;47.156;8.326;2023-07-29T01:27:11;16.90;99.90
1568;DHT22;777;47.156;8.326;2023-07-29T01:29:40;17.00;99.90
1568;DHT22;777;47.156;8.326;2023-07-29T01:32:11;17.10;99.90
1568;DHT22;777;47.156;8.326;2023-07-29T01:34:43;17.10;99.90
1568;DHT22;777;47.156;8.326;2023-07-29T01:37:16;16.80;99.90
1568;DHT22;777;47.156;8.326;2023-07-29T01:39:49;16.90;99.90
1568;DHT22;777;47.156;8.326;2023-07-29T01:42:17;17.00;99.90
1568;DHT22;777;47.156;8.326;2023-07-29T01:44:44;17.10;99.90
1568;DHT22;777;47.156;8.326;2023-07-29T01:47:11;17.00;99.90
1568;DHT22;777;47.156;8.326;2023-07-29T01:49:38;17.00;99.90
1568;DHT22;777;47.156;8.326;2023-07-29T01:52:06;17.00;99.90
1568;DHT22;777;47.156;8.326;2023-07-29T01:54:33;17.10;99.90
1568;DHT22;777;47.156;8.326;2023-07-29T01:57:01;16.80;99.90
1568;DHT22;777;47.156;8.326;2023-07-29T01:59:28;16.90;99.90
1568;DHT22;777;47.156;8.326;2023-07-29T02:01:55;17.00;99.90
1568;DHT22;777;47.156;8.326;2023-07-29T02:04:22;17.10;99.90
1568;DHT22;777;47.156;8.326;2023-07-29T02:06:49;17.20;99.90
1568;DHT22;777;47.156;8.326;2023-07-29T02:09:16;17.20;99.90
1568;DHT22;777;47.156;8.326;2023-07-29T02:11:43;17.40;99.90
1568;DHT22;777;47.156;8.326;2023-07-29T02:14:12;17.40;99.90
1568;DHT22;777;47.156;8.326;2023-07-29T02:16:39;17.60;99.90
1568;DHT22;777;47.156;8.326;2023-07-29T02:19:07;16.70;99.90
1568;DHT22;777;47.156;8.326;2023-07-29T02:21:34;16.30;99.90
1568;DHT22;777;47.156;8.326;2023-07-29T02:24:01;16.40;99.90
1568;DHT22;777;47.156;8.326;2023-07-29T02:26:28;16.40;99.90
1568;DHT22;777;47.156;8.326;2023-07-29T02:28:57;16.40;99.90
1568;DHT22;777;47.156;8.326;2023-07-29T02:31:27;16.30;99.90
1568;DHT22;777;47.156;8.326;2023-07-29T02:33:54;16.30;99.90
1568;DHT22;777;47.156;8.326;2023-07-29T02:36:22;16.40;99.90
1568;DHT22;777;47.156;8.326;2023-07-29T02:38:49;16.60;99.90
1568;DHT22;777;47.156;8.326;2023-07-29T02:41:16;16.60;99.90
1568;DHT22;777;47.156;8.326;2023-07-29T02:43:48;16.70;99.90
1568;DHT22;777;47.156;8.326;2023-07-29T02:46:15;16.70;99.90
1568;DHT22;777;47.156;8.326;2023-07-29T02:48:44;16.70;99.90
1568;DHT22;777;47.156;8.326;2023-07-29T02:51:11;16.70;99.90
1568;DHT22;777;47.156;8.326;2023-07-29T02:53:38;16.80;99.90
1568;DHT22;777;47.156;8.326;2023-07-29T02:56:05;16.90;99.90
1568;DHT22;777;47.156;8.326;2023-07-29T02:58:35;16.90;99.90
1568;DHT22;777;47.156;8.326;2023-07-29T03:01:03;16.90;99.90
1568;DHT22;777;47.156;8.326;2023-07-29T03:03:31;16.80;99.90
1568;DHT22;777;47.156;8.326;2023-07-29T03:06:01;16.60;99.90
1568;DHT22;777;47.156;8.326;2023-07-29T03:08:28;16.60;99.90
1568;DHT22;777;47.156;8.326;2023-07-29T03:10:56;16.60;99.90
1568;DHT22;777;47.156;8.326;2023-07-29T03:13:23;16.60;99.90
1568;DHT22;777;47.156;8.326;2023-07-29T03:15:50;16.60;99.90
1568;DHT22;777;47.156;8.326;2023-07-29T03:18:17;16.80;99.90
1568;DHT22;777;47.156;8.326;2023-07-29T03:20:44;16.80;99.90
1568;DHT22;777;47.156;8.326;2023-07-29T03:23:13;16.80;99.90
1568;DHT22;777;47.156;8.326;2023-07-29T03:25:40;16.70;99.90
1568;DHT22;777;47.156;8.326;2023-07-29T03:28:07;16.60;99.90
1568;DHT22;777;47.156;8.326;2023-07-29T03:30:34;16.60;99.90
1568;DHT22;777;47.156;8.326;2023-07-29T03:33:01;16.60;99.90
1568;DHT22;777;47.156;8.326;2023-07-29T03:35:30;16.60;99.90
1568;DHT22;777;47.156;8.326;2023-07-29T03:37:57;16.50;99.90
1568;DHT22;777;47.156;8.326;2023-07-29T03:40:25;16.40;99.90
1568;DHT22;777;47.156;8.326;2023-07-29T03:42:52;16.50;99.90
1568;DHT22;777;47.156;8.326;2023-07-29T03:45:19;16.50;99.90
1568;DHT22;777;47.156;8.326;2023-07-29T03:47:46;16.50;99.90
1568;DHT22;777;47.156;8.326;2023-07-29T03:50:13;16.40;99.90
1568;DHT22;777;47.156;8.326;2023-07-29T03:52:40;16.40;99.90
1568;DHT22;777;47.156;8.326;2023-07-29T03:55:08;16.40;99.90
1568;DHT22;777;47.156;8.326;2023-07-29T03:57:36;16.40;99.90
1568;DHT22;777;47.156;8.326;2023-07-29T04:00:04;16.40;99.90
1568;DHT22;777;47.156;8.326;2023-07-29T04:02:41;16.30;99.90
1568;DHT22;777;47.156;8.326;2023-07-29T04:05:10;16.30;99.90
1568;DHT22;777;47.156;8.326;2023-07-29T04:07:37;16.30;99.90
1568;DHT22;777;47.156;8.326;2023-07-29T04:10:06;16.30;99.90
1568;DHT22;777;47.156;8.326;2023-07-29T04:12:33;16.30;99.90
1568;DHT22;777;47.156;8.326;2023-07-29T04:15:02;16.30;99.90
1568;DHT22;777;47.156;8.326;2023-07-29T04:17:29;16.30;99.90
1568;DHT22;777;47.156;8.326;2023-07-29T04:19:56;16.30;99.90
1568;DHT22;777;47.156;8.326;2023-07-29T04:22:29;16.30;99.90
1568;DHT22;777;47.156;8.326;2023-07-29T04:24:56;16.30;99.90
1568;DHT22;777;47.156;8.326;2023-07-29T04:27:23;16.40;99.90
1568;DHT22;777;47.156;8.326;2023-07-29T04:29:50;16.40;99.90
1568;DHT22;777;47.156;8.326;2023-07-29T04:32:18;16.40;99.90
1568;DHT22;777;47.156;8.326;2023-07-29T04:34:46;16.30;99.90
1568;DHT22;777;47.156;8.326;2023-07-29T04:37:13;16.30;99.90
1568;DHT22;777;47.156;8.326;2023-07-29T04:39:40;16.40;99.90
1568;DHT22;777;47.156;8.326;2023-07-29T04:42:07;16.30;99.90
1568;DHT22;777;47.156;8.326;2023-07-29T04:44:34;16.30;99.90
1568;DHT22;777;47.156;8.326;2023-07-29T04:47:02;16.40;99.90
1568;DHT22;777;47.156;8.326;2023-07-29T04:49:30;16.40;99.90
1568;DHT22;777;47.156;8.326;2023-07-29T04:51:57;16.40;99.90
1568;DHT22;777;47.156;8.326;2023-07-29T04:54:24;16.40;99.90
1568;DHT22;777;47.156;8.326;2023-07-29T04:56:51;16.50;99.90
1568;DHT22;777;47.156;8.326;2023-07-29T04:59:18;16.60;99.90
1568;DHT22;777;47.156;8.326;2023-07-29T05:01:45;16.60;99.90
1568;DHT22;777;47.156;8.326;2023-07-29T05:04:13;16.60;99.90
1568;DHT22;777;47.156;8.326;2023-07-29T05:06:41;16.60;99.90
1568;DHT22;777;47.156;8.326;2023-07-29T05:09:14;16.40;99.90
1568;DHT22;777;47.156;8.326;2023-07-29T05:11:42;16.40;99.90
1568;DHT22;777;47.156;8.326;2023-07-29T05:14:11;16.40;99.90
1568;DHT22;777;47.156;8.326;2023-07-29T05:16:38;16.50;99.90
1568;DHT22;777;47.156;8.326;2023-07-29T05:19:05;16.40;99.90
1568;DHT22;777;47.156;8.326;2023-07-29T05:21:32;16.40;99.90
1568;DHT22;777;47.156;8.326;2023-07-29T05:24:00;16.40;99.90
1568;DHT22;777;47.156;8.326;2023-07-29T05:26:27;16.50;99.90
1568;DHT22;777;47.156;8.326;2023-07-29T05:28:55;16.50;99.90
1568;DHT22;777;47.156;8.326;2023-07-29T05:31:22;16.50;99.90
1568;DHT22;777;47.156;8.326;2023-07-29T05:33:49;16.50;99.90
1568;DHT22;777;47.156;8.326;2023-07-29T05:36:16;16.60;99.90
1568;DHT22;777;47.156;8.326;2023-07-29T05:38:43;17.30;99.90
1568;DHT22;777;47.156;8.326;2023-07-29T05:41:11;17.40;99.90
1568;DHT22;777;47.156;8.326;2023-07-29T05:43:38;18.40;99.90
1568;DHT22;777;47.156;8.326;2023-07-29T05:46:06;18.90;99.90
1568;DHT22;777;47.156;8.326;2023-07-29T05:48:33;19.30;99.90
1568;DHT22;777;47.156;8.326;2023-07-29T05:51:02;19.10;99.90
1568;DHT22;777;47.156;8.326;2023-07-29T05:53:31;19.50;99.90
1568;DHT22;777;47.156;8.326;2023-07-29T05:55:58;19.50;99.90
1568;DHT22;777;47.156;8.326;2023-07-29T05:58:26;19.50;99.90
1568;DHT22;777;47.156;8.326;2023-07-29T06:00:53;19.00;99.90
1568;DHT22;777;47.156;8.326;2023-07-29T06:03:20;19.60;99.90
1568;DHT22;777;47.156;8.326;2023-07-29T06:05:50;20.70;99.90
1568;DHT22;777;47.156;8.326;2023-07-29T06:08:17;20.10;99.90
1568;DHT22;777;47.156;8.326;2023-07-29T06:10:44;20.40;99.90
1568;DHT22;777;47.156;8.326;2023-07-29T06:13:11;19.60;99.90
1568;DHT22;777;47.156;8.326;2023-07-29T06:15:40;19.70;99.90
1568;DHT22;777;47.156;8.326;2023-07-29T06:18:07;18.90;99.90
1568;DHT22;777;47.156;8.326;2023-07-29T06:20:34;19.00;99.90
1568;DHT22;777;47.156;8.326;2023-07-29T06:23:01;18.80;99.90
1568;DHT22;777;47.156;8.326;2023-07-29T06:25:28;18.50;99.90
1568;DHT22;777;47.156;8.326;2023-07-29T06:27:55;18.30;99.90
1568;DHT22;777;47.156;8.326;2023-07-29T06:30:24;18.60;99.90
1568;DHT22;777;47.156;8.326;2023-07-29T06:32:52;18.90;99.90
1568;DHT22;777;47.156;8.326;2023-07-29T06:35:20;19.10;99.90
1568;DHT22;777;47.156;8.326;2023-07-29T06:37:47;18.90;99.90
1568;DHT22;777;47.156;8.326;2023-07-29T06:40:14;19.20;99.90
1568;DHT22;777;47.156;8.326;2023-07-29T06:42:41;19.40;99.90
1568;DHT22;777;47.156;8.326;2023-07-29T06:45:09;19.30;99.90
1568;DHT22;777;47.156;8.326;2023-07-29T06:47:37;19.80;99.90
1568;DHT22;777;47.156;8.326;2023-07-29T06:50:06;20.00;99.90
1568;DHT22;777;47.156;8.326;2023-07-29T06:52:33;19.90;99.90
1568;DHT22;777;47.156;8.326;2023-07-29T06:55:00;20.00;99.90
1568;DHT22;777;47.156;8.326;2023-07-29T06:57:27;20.20;99.90
1568;DHT22;777;47.156;8.326;2023-07-29T06:59:54;19.80;99.90
1568;DHT22;777;47.156;8.326;2023-07-29T07:02:21;20.10;99.90
1568;DHT22;777;47.156;8.326;2023-07-29T07:04:48;20.10;99.90
1568;DHT22;777;47.156;8.326;2023-07-29T07:07:17;20.00;99.90
1568;DHT22;777;47.156;8.326;2023-07-29T07:09:44;20.00;99.90
1568;DHT22;777;47.156;8.326;2023-07-29T07:12:11;20.00;99.90
1568;DHT22;777;47.156;8.326;2023-07-29T07:14:38;20.00;99.90
1568;DHT22;777;47.156;8.326;2023-07-29T07:17:06;20.50;99.90
1568;DHT22;777;47.156;8.326;2023-07-29T07:19:33;20.70;99.90
1568;DHT22;777;47.156;8.326;2023-07-29T07:21:59;20.40;99.90
1568;DHT22;777;47.156;8.326;2023-07-29T07:24:28;20.50;99.90
1568;DHT22;777;47.156;8.326;2023-07-29T07:26:55;21.40;99.90
1568;DHT22;777;47.156;8.326;2023-07-29T07:29:22;21.90;99.90
1568;DHT22;777;47.156;8.326;2023-07-29T07:31:51;21.60;99.90
1568;DHT22;777;47.156;8.326;2023-07-29T07:34:19;21.90;99.90
1568;DHT22;777;47.156;8.326;2023-07-29T07:36:46;21.90;99.90
1568;DHT22;777;47.156;8.326;2023-07-29T07:39:13;22.20;99.90
1568;DHT22;777;47.156;8.326;2023-07-29T07:41:42;22.80;99.90
1568;DHT22;777;47.156;8.326;2023-07-29T07:44:09;22.70;99.90
1568;DHT22;777;47.156;8.326;2023-07-29T07:46:36;22.50;99.90
1568;DHT22;777;47.156;8.326;2023-07-29T07:49:03;22.50;99.90
1568;DHT22;777;47.156;8.326;2023-07-29T07:51:31;22.60;99.90
1568;DHT22;777;47.156;8.326;2023-07-29T07:53:58;22.10;99.90
1568;DHT22;777;47.156;8.326;2023-07-29T07:56:25;22.40;99.90
1568;DHT22;777;47.156;8.326;2023-07-29T07:58:53;22.20;99.90
1568;DHT22;777;47.156;8.326;2023-07-29T08:01:20;22.60;99.90
1568;DHT22;777;47.156;8.326;2023-07-29T08:03:47;22.70;99.90
1568;DHT22;777;47.156;8.326;2023-07-29T08:06:14;22.80;99.90
1568;DHT22;777;47.156;8.326;2023-07-29T08:08:41;23.50;99.90
1568;DHT22;777;47.156;8.326;2023-07-29T08:11:08;23.50;99.90
1568;DHT22;777;47.156;8.326;2023-07-29T08:13:35;23.20;99.90
1568;DHT22;777;47.156;8.326;2023-07-29T08:16:04;23.50;99.90
1568;DHT22;777;47.156;8.326;2023-07-29T08:18:31;22.90;99.90
1568;DHT22;777;47.156;8.326;2023-07-29T08:20:59;23.10;99.90
1568;DHT22;777;47.156;8.326;2023-07-29T08:23:28;23.50;99.90
1568;DHT22;777;47.156;8.326;2023-07-29T08:25:57;22.90;99.90
1568;DHT22;777;47.156;8.326;2023-07-29T08:28:27;23.40;99.90
1568;DHT22;777;47.156;8.326;2023-07-29T08:30:55;24.10;99.90
1568;DHT22;777;47.156;8.326;2023-07-29T08:33:23;23.30;99.90
1568;DHT22;777;47.156;8.326;2023-07-29T08:35:51;24.20;99.90
1568;DHT22;777;47.156;8.326;2023-07-29T08:38:18;24.00;99.90
1568;DHT22;777;47.156;8.326;2023-07-29T08:40:48;24.40;99.90
1568;DHT22;777;47.156;8.326;2023-07-29T08:43:19;24.20;99.90
1568;DHT22;777;47.156;8.326;2023-07-29T08:45:46;24.20;99.90
1568;DHT22;777;47.156;8.326;2023-07-29T08:48:15;24.70;99.90
1568;DHT22;777;47.156;8.326;2023-07-29T08:50:48;24.90;99.90
1568;DHT22;777;47.156;8.326;2023-07-29T08:53:16;25.30;99.90
1568;DHT22;777;47.156;8.326;2023-07-29T08:55:43;24.90;99.90
1568;DHT22;777;47.156;8.326;2023-07-29T08:58:11;24.60;99.90
1568;DHT22;777;47.156;8.326;2023-07-29T09:00:38;25.70;99.90
1568;DHT22;777;47.156;8.326;2023-07-29T09:03:06;25.80;99.90
1568;DHT22;777;47.156;8.326;2023-07-29T09:05:33;24.80;99.90
1568;DHT22;777;47.156;8.326;2023-07-29T09:08:02;24.40;99.90
1568;DHT22;777;47.156;8.326;2023-07-29T09:10:35;24.80;99.90
1568;DHT22;777;47.156;8.326;2023-07-29T09:13:02;25.60;99.90
1568;DHT22;777;47.156;8.326;2023-07-29T09:15:29;25.90;99.90
1568;DHT22;777;47.156;8.326;2023-07-29T09:17:57;25.80;99.90
1568;DHT22;777;47.156;8.326;2023-07-29T09:20:25;25.30;99.90
1568;DHT22;777;47.156;8.326;2023-07-29T09:22:53;26.30;99.90
1568;DHT22;777;47.156;8.326;2023-07-29T09:25:26;27.20;99.90
1568;DHT22;777;47.156;8.326;2023-07-29T09:27:59;26.80;99.90
1568;DHT22;777;47.156;8.326;2023-07-29T09:30:26;26.20;99.90
1568;DHT22;777;47.156;8.326;2023-07-29T09:32:55;26.00;99.90
1568;DHT22;777;47.156;8.326;2023-07-29T09:35:22;26.70;99.90
1568;DHT22;777;47.156;8.326;2023-07-29T09:37:50;27.90;99.90
1568;DHT22;777;47.156;8.326;2023-07-29T09:40:18;28.40;99.90
1568;DHT22;777;47.156;8.326;2023-07-29T09:42:50;27.70;99.90
1568;DHT22;777;47.156;8.326;2023-07-29T09:45:22;27.50;99.90
1568;DHT22;777;47.156;8.326;2023-07-29T09:47:51;27.80;99.90
1568;DHT22;777;47.156;8.326;2023-07-29T09:50:18;28.70;99.90
1568;DHT22;777;47.156;8.326;2023-07-29T09:52:46;27.40;99.90
1568;DHT22;777;47.156;8.326;2023-07-29T09:55:17;27.00;99.90
1568;DHT22;777;47.156;8.326;2023-07-29T09:57:45;26.40;99.90
1568;DHT22;777;47.156;8.326;2023-07-29T10:00:14;26.70;99.90
1568;DHT22;777;47.156;8.326;2023-07-29T10:02:42;26.40;99.90
1568;DHT22;777;47.156;8.326;2023-07-29T10:05:10;26.30;99.90
1568;DHT22;777;47.156;8.326;2023-07-29T10:07:38;26.80;99.90
1568;DHT22;777;47.156;8.326;2023-07-29T10:10:07;27.70;99.90
1568;DHT22;777;47.156;8.326;2023-07-29T10:12:35;27.20;99.90
1568;DHT22;777;47.156;8.326;2023-07-29T10:15:04;27.10;99.90
1568;DHT22;777;47.156;8.326;2023-07-29T10:17:35;26.50;99.90
1568;DHT22;777;47.156;8.326;2023-07-29T10:20:03;26.20;99.90
1568;DHT22;777;47.156;8.326;2023-07-29T10:22:33;26.40;99.90
1568;DHT22;777;47.156;8.326;2023-07-29T10:25:04;26.30;99.90
1568;DHT22;777;47.156;8.326;2023-07-29T10:27:39;26.50;99.90
1568;DHT22;777;47.156;8.326;2023-07-29T10:30:11;26.80;99.90
1568;DHT22;777;47.156;8.326;2023-07-29T10:32:44;26.80;99.90
1568;DHT22;777;47.156;8.326;2023-07-29T10:35:12;27.60;99.90
1568;DHT22;777;47.156;8.326;2023-07-29T10:37:39;27.70;99.90
1568;DHT22;777;47.156;8.326;2023-07-29T10:40:09;27.40;99.90
1568;DHT22;777;47.156;8.326;2023-07-29T10:42:37;27.30;99.90
1568;DHT22;777;47.156;8.326;2023-07-29T10:45:23;26.90;99.90
1568;DHT22;777;47.156;8.326;2023-07-29T10:47:51;27.50;99.90
1568;DHT22;777;47.156;8.326;2023-07-29T10:50:19;28.00;99.90
1568;DHT22;777;47.156;8.326;2023-07-29T10:52:50;27.90;99.90
1568;DHT22;777;47.156;8.326;2023-07-29T10:55:28;27.50;99.90
1568;DHT22;777;47.156;8.326;2023-07-29T10:58:07;26.80;99.90
1568;DHT22;777;47.156;8.326;2023-07-29T11:00:34;27.40;99.90
1568;DHT22;777;47.156;8.326;2023-07-29T11:03:05;26.90;99.90
1568;DHT22;777;47.156;8.326;2023-07-29T11:05:43;26.50;99.90
1568;DHT22;777;47.156;8.326;2023-07-29T11:08:17;26.60;99.90
1568;DHT22;777;47.156;8.326;2023-07-29T11:10:44;27.30;99.90
1568;DHT22;777;47.156;8.326;2023-07-29T11:13:11;27.20;99.90
1568;DHT22;777;47.156;8.326;2023-07-29T11:15:39;27.40;99.90
1568;DHT22;777;47.156;8.326;2023-07-29T11:18:09;27.80;99.90
1568;DHT22;777;47.156;8.326;2023-07-29T11:20:37;27.70;99.90
1568;DHT22;777;47.156;8.326;2023-07-29T11:23:05;27.10;99.90
1568;DHT22;777;47.156;8.326;2023-07-29T11:25:32;27.90;99.90
1568;DHT22;777;47.156;8.326;2023-07-29T11:28:01;27.70;99.90
1568;DHT22;777;47.156;8.326;2023-07-29T11:30:28;27.60;99.90
1568;DHT22;777;47.156;8.326;2023-07-29T11:32:57;27.60;99.90
1568;DHT22;777;47.156;8.326;2023-07-29T11:35:26;28.00;99.90
1568;DHT22;777;47.156;8.326;2023-07-29T11:37:54;28.20;99.90
1568;DHT22;777;47.156;8.326;2023-07-29T11:40:23;28.70;99.90
1568;DHT22;777;47.156;8.326;2023-07-29T11:42:52;28.50;99.90
1568;DHT22;777;47.156;8.326;2023-07-29T11:45:20;29.20;99.90
1568;DHT22;777;47.156;8.326;2023-07-29T11:47:47;29.00;99.90
1568;DHT22;777;47.156;8.326;2023-07-29T11:50:15;28.80;99.90
1568;DHT22;777;47.156;8.326;2023-07-29T11:52:45;28.90;99.90
1568;DHT22;777;47.156;8.326;2023-07-29T11:55:14;28.20;99.90
1568;DHT22;777;47.156;8.326;2023-07-29T11:57:42;27.40;99.90
1568;DHT22;777;47.156;8.326;2023-07-29T12:00:11;28.00;99.90
1568;DHT22;777;47.156;8.326;2023-07-29T12:02:44;28.40;99.90
1568;DHT22;777;47.156;8.326;2023-07-29T12:05:13;28.40;99.90
1568;DHT22;777;47.156;8.326;2023-07-29T12:07:43;28.40;99.90
1568;DHT22;777;47.156;8.326;2023-07-29T12:10:11;28.20;99.90
1568;DHT22;777;47.156;8.326;2023-07-29T12:12:44;27.70;99.90
1568;DHT22;777;47.156;8.326;2023-07-29T12:15:11;27.60;99.90
1568;DHT22;777;47.156;8.326;2023-07-29T12:17:40;27.50;99.90
1568;DHT22;777;47.156;8.326;2023-07-29T12:20:09;27.20;99.90
1568;DHT22;777;47.156;8.326;2023-07-29T12:22:36;27.00;99.90
1568;DHT22;777;47.156;8.326;2023-07-29T12:25:05;27.00;99.90
1568;DHT22;777;47.156;8.326;2023-07-29T12:27:32;26.80;99.90
1568;DHT22;777;47.156;8.326;2023-07-29T12:30:01;26.70;99.90
1568;DHT22;777;47.156;8.326;2023-07-29T12:32:29;26.50;99.90
1568;DHT22;777;47.156;8.326;2023-07-29T12:34:56;26.30;99.90
1568;DHT22;777;47.156;8.326;2023-07-29T12:37:31;26.30;99.90
1568;DHT22;777;47.156;8.326;2023-07-29T12:39:59;26.20;99.90
1568;DHT22;777;47.156;8.326;2023-07-29T12:42:27;26.00;99.90
1568;DHT22;777;47.156;8.326;2023-07-29T12:44:54;25.70;99.90
1568;DHT22;777;47.156;8.326;2023-07-29T12:47:21;25.40;99.90
1568;DHT22;777;47.156;8.326;2023-07-29T12:49:48;25.20;99.90
1568;DHT22;777;47.156;8.326;2023-07-29T12:52:15;25.00;99.90
1568;DHT22;777;47.156;8.326;2023-07-29T12:54:42;24.60;99.90
1568;DHT22;777;47.156;8.326;2023-07-29T12:57:10;24.30;99.90
1568;DHT22;777;47.156;8.326;2023-07-29T12:59:38;24.10;99.90
1568;DHT22;777;47.156;8.326;2023-07-29T13:02:05;23.80;99.90
1568;DHT22;777;47.156;8.326;2023-07-29T13:04:32;23.80;99.90
1568;DHT22;777;47.156;8.326;2023-07-29T13:06:59;23.80;99.90
1568;DHT22;777;47.156;8.326;2023-07-29T13:09:26;23.80;99.90
1568;DHT22;777;47.156;8.326;2023-07-29T13:11:53;23.90;99.90
1568;DHT22;777;47.156;8.326;2023-07-29T13:14:20;24.00;99.90
1568;DHT22;777;47.156;8.326;2023-07-29T13:16:49;24.10;99.90
1568;DHT22;777;47.156;8.326;2023-07-29T13:19:16;23.90;99.90
1568;DHT22;777;47.156;8.326;2023-07-29T13:21:43;23.80;99.90
1568;DHT22;777;47.156;8.326;2023-07-29T13:24:10;23.70;99.90
1568;DHT22;777;47.156;8.326;2023-07-29T13:26:37;23.70;99.90
1568;DHT22;777;47.156;8.326;2023-07-29T13:29:04;23.50;99.90
1568;DHT22;777;47.156;8.326;2023-07-29T13:31:31;23.00;99.90
1568;DHT22;777;47.156;8.326;2023-07-29T13:33:59;22.50;99.90
1568;DHT22;777;47.156;8.326;2023-07-29T13:36:26;21.60;99.90
1568;DHT22;777;47.156;8.326;2023-07-29T13:38:53;21.00;99.90
1568;DHT22;777;47.156;8.326;2023-07-29T13:41:20;20.40;99.90
1568;DHT22;777;47.156;8.326;2023-07-29T13:43:47;20.20;99.90
1568;DHT22;777;47.156;8.326;2023-07-29T13:46:14;20.10;99.90
1568;DHT22;777;47.156;8.326;2023-07-29T13:48:41;19.70;99.90
1568;DHT22;777;47.156;8.326;2023-07-29T13:51:10;19.90;99.90
1568;DHT22;777;47.156;8.326;2023-07-29T13:53:37;20.40;99.90
1568;DHT22;777;47.156;8.326;2023-07-29T13:56:05;20.50;99.90
1568;DHT22;777;47.156;8.326;2023-07-29T13:58:32;20.60;99.90
1568;DHT22;777;47.156;8.326;2023-07-29T14:00:59;21.10;99.90
1568;DHT22;777;47.156;8.326;2023-07-29T14:03:27;21.40;99.90
1568;DHT22;777;47.156;8.326;2023-07-29T14:05:53;21.50;99.90
1568;DHT22;777;47.156;8.326;2023-07-29T14:08:22;21.60;99.90
1568;DHT22;777;47.156;8.326;2023-07-29T14:10:49;21.60;99.90
1568;DHT22;777;47.156;8.326;2023-07-29T14:13:16;21.50;99.90
1568;DHT22;777;47.156;8.326;2023-07-29T14:15:44;21.60;99.90
1568;DHT22;777;47.156;8.326;2023-07-29T14:18:11;21.80;99.90
1568;DHT22;777;47.156;8.326;2023-07-29T14:20:38;21.90;99.90
1568;DHT22;777;47.156;8.326;2023-07-29T14:23:05;21.90;99.90
1568;DHT22;777;47.156;8.326;2023-07-29T14:25:33;21.90;99.90
1568;DHT22;777;47.156;8.326;2023-07-29T14:28:00;22.10;99.90
1568;DHT22;777;47.156;8.326;2023-07-29T14:30:27;22.10;99.90
1568;DHT22;777;47.156;8.326;2023-07-29T14:32:54;22.20;99.90
1568;DHT22;777;47.156;8.326;2023-07-29T14:35:21;22.10;99.90
1568;DHT22;777;47.156;8.326;2023-07-29T14:37:48;21.00;99.90
1568;DHT22;777;47.156;8.326;2023-07-29T14:40:16;20.30;99.90
1568;DHT22;777;47.156;8.326;2023-07-29T14:42:44;20.00;99.90
1568;DHT22;777;47.156;8.326;2023-07-29T14:45:11;20.10;99.90
1568;DHT22;777;47.156;8.326;2023-07-29T14:47:38;20.10;99.90
1568;DHT22;777;47.156;8.326;2023-07-29T14:50:05;20.20;99.90
1568;DHT22;777;47.156;8.326;2023-07-29T14:52:33;20.30;99.90
1568;DHT22;777;47.156;8.326;2023-07-29T14:55:00;20.50;99.90
1568;DHT22;777;47.156;8.326;2023-07-29T14:57:27;21.00;99.90
1568;DHT22;777;47.156;8.326;2023-07-29T14:59:55;20.90;99.90
1568;DHT22;777;47.156;8.326;2023-07-29T15:02:22;21.30;99.90
1568;DHT22;777;47.156;8.326;2023-07-29T15:04:49;21.00;99.90
1568;DHT22;777;47.156;8.326;2023-07-29T15:07:16;20.80;99.90
1568;DHT22;777;47.156;8.326;2023-07-29T15:09:43;20.60;99.90
1568;DHT22;777;47.156;8.326;2023-07-29T15:12:10;20.60;99.90
1568;DHT22;777;47.156;8.326;2023-07-29T15:14:37;20.60;99.90
1568;DHT22;777;47.156;8.326;2023-07-29T15:17:06;20.30;99.90
1568;DHT22;777;47.156;8.326;2023-07-29T15:19:33;20.00;99.90
1568;DHT22;777;47.156;8.326;2023-07-29T15:22:00;19.90;99.90
1568;DHT22;777;47.156;8.326;2023-07-29T15:24:29;20.00;99.90
1568;DHT22;777;47.156;8.326;2023-07-29T15:26:56;19.80;99.90
1568;DHT22;777;47.156;8.326;2023-07-29T15:29:23;19.80;99.90
1568;DHT22;777;47.156;8.326;2023-07-29T15:31:50;20.00;99.90
1568;DHT22;777;47.156;8.326;2023-07-29T15:34:18;20.00;99.90
1568;DHT22;777;47.156;8.326;2023-07-29T15:36:45;20.20;99.90
1568;DHT22;777;47.156;8.326;2023-07-29T15:39:12;20.40;99.90
1568;DHT22;777;47.156;8.326;2023-07-29T15:41:39;20.50;99.90
1568;DHT22;777;47.156;8.326;2023-07-29T15:44:06;20.40;99.90
1568;DHT22;777;47.156;8.326;2023-07-29T15:46:34;20.20;99.90
1568;DHT22;777;47.156;8.326;2023-07-29T15:49:01;20.00;99.90
1568;DHT22;777;47.156;8.326;2023-07-29T15:51:29;19.80;99.90
1568;DHT22;777;47.156;8.326;2023-07-29T15:53:56;20.00;99.90
1568;DHT22;777;47.156;8.326;2023-07-29T15:56:23;19.30;99.90
1568;DHT22;777;47.156;8.326;2023-07-29T15:58:50;19.10;99.90
1568;DHT22;777;47.156;8.326;2023-07-29T16:01:17;18.80;99.90
1568;DHT22;777;47.156;8.326;2023-07-29T16:03:44;18.60;99.90
1568;DHT22;777;47.156;8.326;2023-07-29T16:06:11;18.70;99.90
1568;DHT22;777;47.156;8.326;2023-07-29T16:08:39;18.20;99.90
1568;DHT22;777;47.156;8.326;2023-07-29T16:11:06;18.30;99.90
1568;DHT22;777;47.156;8.326;2023-07-29T16:13:34;18.20;99.90
1568;DHT22;777;47.156;8.326;2023-07-29T16:16:01;18.10;99.90
1568;DHT22;777;47.156;8.326;2023-07-29T16:18:29;18.00;99.90
1568;DHT22;777;47.156;8.326;2023-07-29T16:20:56;18.10;99.90